White Rock, New Mexico
Current Conditions -  °F | °C
As of 3:35 PM on Wednesday 22 Oct 2014 (Local Time) from KLAM Reporting Station
Broken Clouds Broken Clouds  
Wind Chill: 17°   Ceiling: 9000
Heat Index: 17°   Visibility: 10mi
Dew Point:   Wind: 6mph
Humidity: 45%   Direction: 170°S
Pressure: 30.22"   Gusts: NA
Location:  35.8375°N, 106.349°W
Report Text: KLAM 222135Z AUTO 17005KT 10SM BKN090 17/05 A3022 RMK AO2 T01700048
Loading
Personal Weather Stations






























Interactive Weather Map
Tropical Storm Tracking
New forecast layout! Learn more

10-Day Weather Forecast

Advertisements
Track Severe Weather on mobile